• Join FlightAware (Why Join?)
  • Login
  • US Flag 
04:15AM EDT


 

Airport Tracker/Info


-or-


 

Live Flight TrackerFlight Track Log ✈ AVN50 ✈ 05-Oct-2013 ✈ NVVV / VLI - NZAA / AKL

Flight Track Log - Related Links

Times and Time Zones

All times are in EDT time to prevent confusion due to time zone crossing. See the AVN50 flight status page for this flight to view local times or setup timezone preferences in your user account.

Time Position Orientation Groundspeed Altitude Reporting Facility
EDT Latitude Longitude Course Direction KTS MPH feet Rate Location/Type
04:34PM -21.3810 169.2370 164° South 479 551 37,000  Level FlightAware
04:35PM -21.4530 169.2590 164° South 480 552 37,000  Level FlightAware
04:36PM -21.5400 169.2870 163° South 480 552 37,000  Level FlightAware
04:36PM -21.6030 169.3080 163° South 480 552 37,000  Level FlightAware
04:37PM -21.7030 169.3360 165° South 478 550 37,000  Level FlightAware
04:37PM -21.7520 169.3510 164° South 478 550 37,000  Level FlightAware
04:38PM -21.8230 169.3730 164° South 478 550 37,000  Level FlightAware
04:39PM -21.8900 169.3940 164° South 478 550 37,000  Level FlightAware
04:39PM -21.9550 169.4140 164° South 478 550 37,000  Level FlightAware
04:40PM -22.0200 169.4340 164° South 478 550 37,000  Level FlightAware
04:40PM -22.0870 169.4550 164° South 478 550 37,000  Level FlightAware
04:41PM -22.1520 169.4750 164° South 478 550 37,000  Level FlightAware
04:42PM -22.2180 169.4950 164° South 478 550 37,000  Level FlightAware
04:42PM -22.2800 169.5140 164° South 478 550 37,000  Level FlightAware
04:43PM -22.3470 169.5350 164° South 478 550 37,000  Level FlightAware
04:43PM -22.4120 169.5550 164° South 478 550 37,000  Level FlightAware
04:44PM -22.4770 169.5760 163° South 478 550 37,000  Level FlightAware
04:45PM -22.5380 169.5950 164° South 478 550 37,000  Level FlightAware
04:45PM -22.6070 169.6160 164° South 478 550 37,000  Level FlightAware
04:46PM -22.7760 169.6690 164° South 473 544 37,000  Level FlightAware
04:46PM -22.8900 169.7060 163° South 473 544 37,000  Level FlightAware
04:47PM -22.9680 169.7290 165° South 472 543 37,000  Level FlightAware
04:48PM -23.0390 169.7530 163° South 472 543 37,000  Level FlightAware
04:48PM -23.1050 169.7750 163° South 472 543 37,000  Level FlightAware
04:49PM -23.2080 169.8040 165° South 472 543 37,000  Level FlightAware
04:49PM -23.2920 169.8320 163° South 472 543 37,000  Level FlightAware
04:50PM -23.3560 169.8530 163° South 472 543 37,000  Level FlightAware
04:51PM -23.4200 169.8740 163° South 472 543 37,000  Level FlightAware
04:51PM -23.4840 169.8960 163° South 472 543 37,000  Level FlightAware
04:52PM -23.5480 169.9170 163° South 472 543 37,000  Level FlightAware
04:52PM -23.6800 169.9540 166° South 476 548 37,000  Level FlightAware
04:53PM -23.7720 169.9830 164° South 477 549 37,000  Level FlightAware
04:54PM -23.8680 170.0140 164° South 478 550 37,000  Level FlightAware
04:55PM -23.9460 170.0380 164° South 479 551 37,000  Level FlightAware
04:55PM -24.0160 170.0620 163° South 479 551 37,000  Level FlightAware
04:56PM -24.0810 170.0830 164° South 479 551 37,000  Level FlightAware
04:56PM -24.1460 170.1050 163° South 479 551 37,000  Level FlightAware
04:57PM -24.2110 170.1270 163° South 479 551 37,000  Level FlightAware
04:58PM -24.2720 170.1470 163° South 479 551 37,000  Level FlightAware
04:58PM -24.3370 170.1690 163° South 479 551 37,000  Level FlightAware
04:59PM -24.4020 170.1910 163° South 479 551 37,000  Level FlightAware
04:59PM -24.4670 170.2130 163° South 479 551 37,000  Level FlightAware
05:00PM -24.5350 170.2360 163° South 479 551 37,000  Level FlightAware
05:01PM -24.5960 170.2560 163° South 479 551 37,000  Level FlightAware
05:01PM -24.6610 170.2780 163° South 479 551 37,000  Level FlightAware
05:02PM -24.7260 170.3000 163° South 479 551 37,000  Level FlightAware
05:02PM -24.7910 170.3220 163° South 479 551 37,000  Level FlightAware
05:03PM -24.8560 170.3440 163° South 479 551 37,000  Level FlightAware
05:04PM -24.9210 170.3650 164° South 479 551 37,000  Level FlightAware
05:04PM -24.9850 170.3870 163° South 479 551 37,000  Level FlightAware
05:07PM -25.3330 170.4928 165° South  Level FlightAware Approximate
05:07PM -23.9830 170.0500 165° South 480 552 37,000  Level FlightAware
05:08PM -25.4801 170.5378 165° South  Level FlightAware Approximate
05:08PM -24.0550 170.0740 163° South 480 552 37,000  Level FlightAware
05:09PM -24.1200 170.0960 163° South 480 552 37,000  Level FlightAware
05:09PM -24.1850 170.1170 164° South 480 552 37,000  Level FlightAware
05:10PM -24.2500 170.1390 163° South 480 552 37,000  Level FlightAware
05:10PM -24.3150 170.1610 163° South 480 552 37,000  Level FlightAware
05:11PM -24.3830 170.1840 163° South 480 552 37,000  Level FlightAware
05:12PM -24.4480 170.2060 163° South 480 552 37,000  Level FlightAware
05:12PM -24.5130 170.2280 163° South 480 552 37,000  Level FlightAware
05:13PM -24.5800 170.2500 163° South 480 552 37,000  Level FlightAware
05:14PM -24.6470 170.2730 163° South 480 552 37,000  Level FlightAware
05:14PM -24.7120 170.2940 164° South 480 552 37,000  Level FlightAware
05:15PM -24.7790 170.3170 163° South 480 552 37,000  Level FlightAware
05:15PM -24.8440 170.3390 163° South 480 552 37,000  Level FlightAware
05:16PM -24.9070 170.3600 163° South 480 552 37,000  Level FlightAware
05:17PM -24.9720 170.3820 163° South 480 552 37,000  Level FlightAware
05:17PM -26.7667 170.9500 163° South 477 549  Descending New Zealand
05:17PM -25.0370 170.4040 163° South 480 552 37,000 720 Climbing FlightAware
05:19PM -27.0167 171.0167 163° South 477 549  Descending New Zealand
05:21PM -27.2833 171.1000 164° South 477 549 720 Level New Zealand
05:23PM -27.5333 171.1833 164° South 477 549 780 Level New Zealand
05:25PM -27.7833 171.2667 164° South 477 549 780 Level New Zealand
05:27PM -28.0500 171.3500 165° South 477 549 840 Level New Zealand
05:29PM -28.3000 171.4333 164° South 477 549 900 Level New Zealand
05:31PM -28.5500 171.5167 164° South 477 549 900 Level New Zealand
05:33PM -28.8167 171.6167 162° South 477 549 960 Level New Zealand
05:35PM -29.0667 171.7000 164° South 477 549 1,020 Level New Zealand
05:37PM -29.3167 171.7833 164° South 477 549 1,080 Level New Zealand
05:39PM -29.5833 171.8667 165° South 496 571 1,200 Level New Zealand
05:41PM -29.9667 172.0000 163° South 491 565 1,260 Level New Zealand
05:43PM -30.2333 172.0833 165° South 491 565 1,380 Level New Zealand
05:45PM -30.5000 172.1833 162° South 491 565 1,500 Level New Zealand
05:47PM -30.7500 172.2667 164° South 491 565 1,620 Level New Zealand
05:49PM -31.0167 172.3667 162° South 491 565 1,800 Level New Zealand
05:51PM -31.2833 172.4500 165° South 491 565 1,980 Level New Zealand
05:53PM -31.5500 172.5500 162° South 491 565 2,220 Level New Zealand
05:55PM -31.8000 172.6333 164° South 491 565 2,520 Level New Zealand
05:57PM -32.0667 172.7333 162° South 491 565 2,940 Level New Zealand
05:59PM -32.3333 172.8167 165° South 491 565 3,480 Level New Zealand
06:01PM -32.5833 172.9167 161° South 491 565 4,320 Level New Zealand
06:03PM -32.8500 173.0167 163° South 491 565 5,640 Level New Zealand
06:05PM -33.1167 173.1000 165° South 491 565 8,100 Level New Zealand
06:07PM -33.3667 173.2000 162° South 491 565 14,460 Level New Zealand
06:07PM -33.4050 173.2140 162° South 489 563 37,000 29,580 Climbing FlightAware
06:08PM -33.4810 173.2440 162° South 489 563 37,000  Level FlightAware
06:08PM -33.5630 173.2730 164° South 484 557 37,000  Level FlightAware
06:09PM -33.6610 173.3100 163° South 476 548 37,000  Level FlightAware
06:10PM -33.7260 173.3340 163° South 471 542 37,000  Level FlightAware
06:10PM -33.8000 173.3620 163° South 469 540 37,000  Level FlightAware
06:11PM -33.8740 173.3890 163° South 468 539 37,000  Level FlightAware
06:11PM -33.9570 173.4240 161° South 475 547 37,000  Level FlightAware
06:12PM -34.0167 173.4500 161° South 473 544  Descending New Zealand
06:12PM -34.0210 173.4520 161° South 465 535 37,000 65,280 Climbing FlightAware
06:13PM -34.0910 173.4830 160° South 460 529 37,000  Level FlightAware
06:13PM -34.1620 173.5140 160° South 447 514 37,000  Level FlightAware
06:14PM -34.2280 173.5510 155° Southeast 451 519 37,000  Level FlightAware
06:14PM -34.2910 173.6010 147° Southeast 463 533 37,000  Level FlightAware
06:15PM -34.3540 173.6510 147° Southeast 463 533 37,000  Level FlightAware
06:15PM -34.4160 173.7010 146° Southeast 460 529 37,000  Level FlightAware
06:16PM -34.4833 173.7500 146° Southeast 460 529  Descending New Zealand
06:16PM -34.4870 173.7570 146° Southeast 452 520 37,000 58,380 Climbing FlightAware
06:17PM -34.5490 173.8070 146° Southeast 450 518 37,000  Level FlightAware
06:17PM -34.6030 173.8500 147° Southeast 451 519 37,000  Level FlightAware
06:18PM -34.6650 173.9000 146° Southeast 452 520 37,000  Level FlightAware
06:19PM -34.7350 173.9570 146° Southeast 450 518 37,000  Level FlightAware
06:19PM -34.7890 174.0000 147° Southeast 450 518 37,000  Level FlightAware
06:20PM -34.8500 174.0490 147° Southeast 460 529 37,000  Level FlightAware
06:20PM -34.9167 174.1000 147° Southeast 461 531  Descending New Zealand
06:20PM -34.9220 174.1080 147° Southeast 466 536 37,000 71,580 Climbing FlightAware
06:21PM -34.9760 174.1510 147° Southeast 467 537 37,000  Level FlightAware
06:21PM -35.0333 174.2000 147° Southeast 472 543  Descending New Zealand
06:21PM -35.0400 174.2040 147° Southeast 467 537 37,000 55,500 Climbing FlightAware
06:22PM -35.1030 174.2550 146° Southeast 467 537 37,000  Level FlightAware
06:23PM -35.1680 174.3070 147° Southeast 467 537 37,000  Level FlightAware
06:23PM -35.2310 174.3590 146° Southeast 466 536 37,000  Level FlightAware
06:24PM -35.2950 174.4100 147° Southeast 464 534 37,000 -600 Level FlightAware
06:24PM -35.3580 174.4630 147° Southeast 461 531 36,300 -2,040 Descending FlightAware
06:24PM -35.3667 174.4667 147° Southeast 464 534 -2,940 Descending New Zealand
06:25PM -35.4210 174.5150 146° Southeast 464 534 34,600 31,980 Climbing FlightAware
06:25PM -35.4833 174.5500 146° Southeast 466 536 -2,940 Descending New Zealand
06:25PM -35.4760 174.5600 146° Southeast 465 535 33,100 48,300 Climbing FlightAware
06:26PM -35.5470 174.6180 146° Southeast 468 539 32,200 -2,100 Descending FlightAware
06:27PM -35.6110 174.6710 146° Southeast 466 536 30,500 -2,820 Descending FlightAware
06:27PM -35.6710 174.7210 146° Southeast 454 522 29,000 -2,520 Descending FlightAware
06:28PM -35.7340 174.7730 146° Southeast 447 514 27,600 -2,520 Descending FlightAware
06:28PM -35.7930 174.8220 146° Southeast 448 516 26,100 -2,520 Descending FlightAware
06:28PM -35.8000 174.8333 146° Southeast 450 518 -2,340 Descending New Zealand
06:29PM -35.8540 174.8730 146° Southeast 435 501 24,700 21,480 Climbing FlightAware
06:29PM -35.9000 174.9167 146° Southeast 442 509 -2,400 Descending New Zealand
06:30PM -35.9130 174.9220 146° Southeast 427 491 23,300 29,580 Climbing FlightAware
06:30PM -35.9800 174.9780 146° Southeast 426 490 21,700 -2,340 Descending FlightAware
06:31PM -36.0360 175.0250 146° Southeast 413 475 20,400 -2,340 Descending FlightAware
06:31PM -36.0920 175.0720 146° Southeast 413 475 19,000 -2,340 Descending FlightAware
06:32PM -36.1000 175.0833 146° Southeast 415 478 -2,340 Descending New Zealand
06:32PM -36.1450 175.1170 146° Southeast 406 467 17,700 16,080 Climbing FlightAware
06:33PM -36.2010 175.1630 146° Southeast 392 451 16,400 -2,280 Descending FlightAware
06:33PM -36.2000 175.1667 146° Southeast 402 463 -2,340 Descending New Zealand
06:33PM -36.2610 175.2140 146° Southeast 390 449 14,900 12,000 Climbing FlightAware
06:34PM -36.3050 175.2510 146° Southeast 375 432 13,800 -2,040 Descending FlightAware
06:34PM -36.3480 175.2860 147° Southeast 370 426 12,900 -1,560 Descending FlightAware
06:34PM -36.3640 175.2910 166° South 358 412 12,800 -1,200 Descending FlightAware
06:35PM -36.4040 175.2850 187° South 340 391 12,200 -1,620 Descending FlightAware
06:35PM -36.4550 175.2620 200° South 330 380 11,200 -1,620 Descending FlightAware
06:36PM -36.5120 175.2350 201° Southwest 311 358 10,200 -1,020 Descending FlightAware
06:37PM -36.5520 175.2170 200° South 293 337 10,000 -720 Descending FlightAware
06:37PM -36.5710 175.2080 201° Southwest 288 331 9,700 -1,200 Descending FlightAware
06:37PM -36.5960 175.1970 199° South 272 313 9,300 -1,080 Descending FlightAware
06:37PM -36.6210 175.1860 199° South 274 315 9,000 -900 Descending FlightAware
06:38PM -36.6430 175.1750 202° Southwest 259 298 8,700 -1,140 Descending FlightAware
06:38PM -36.6720 175.1620 200° South 255 293 8,200 -1,200 Descending FlightAware
06:38PM -36.6900 175.1540 200° South 261 300 7,900 -1,200 Descending FlightAware
06:39PM -36.7180 175.1410 200° South 259 298 7,400 -1,260 Descending FlightAware
06:39PM -36.7340 175.1340 199° South 256 295 7,100 -900 Descending FlightAware
06:39PM -36.7560 175.1230 202° Southwest 240 276 6,900 -900 Descending FlightAware
06:40PM -36.7780 175.1140 198° South 238 274 6,500 -1,080 Descending FlightAware
06:40PM -36.7930 175.1070 200° South 243 280 6,300 -720 Descending FlightAware
06:40PM -36.8140 175.0970 201° Southwest 228 262 6,100 -900 Descending FlightAware
06:41PM -36.8350 175.0880 199° South 226 260 5,700 -1,200 Descending FlightAware
06:41PM -36.8550 175.0780 202° Southwest 224 258 5,300 -1,080 Descending FlightAware
06:41PM -36.8750 175.0690 200° South 223 257 5,000 -960 Descending FlightAware
06:42PM -36.8950 175.0600 200° South 224 258 4,700 -1,020 Descending FlightAware
06:42PM -36.9050 175.0550 202° Southwest 212 244 4,500 -1,020 Descending FlightAware
06:42PM -36.9280 175.0450 199° South 193 222 4,100 -960 Descending FlightAware
06:43PM -36.9420 175.0330 214° Southwest 188 216 3,800 -1,080 Descending FlightAware
06:43PM -36.9460 175.0230 243° Southwest 190 219 3,600 -1,080 Descending FlightAware
06:43PM -36.9540 174.9970 249° West 186 214 3,200 -1,080 Descending FlightAware
06:43PM -36.9580 174.9820 252° West 185 213 2,900 -1,080 Descending FlightAware
06:44PM -36.9650 174.9560 251° West 181 208 2,500 -960 Descending FlightAware
06:44PM -36.9710 174.9360 249° West 176 203 2,200 -1,080 Descending FlightAware
06:45PM -36.9760 174.9160 253° West 171 197 1,800 -960 Descending FlightAware
06:45PM -36.9810 174.8970 252° West 172 198 1,500 -840 Descending FlightAware
06:45PM -36.9870 174.8750 251° West 156 180 1,200 -900 Descending FlightAware
06:46PM -36.9920 174.8580 250° West 149 171 900 -1,020 Descending FlightAware
06:46PM -36.9950 174.8470 251° West 150 173 600 -900 Descending FlightAware
06:46PM -37.0000 174.8310 249° West 151 174 400 -780 Descending FlightAware
06:47PM -37.0050 174.8140 250° West 150 173 100 -900 Descending FlightAware
06:47PM -37.0090 174.7970 254° West 148 170 -300 Descending FlightAware